Search for airport 
image banner adimage banner adimage banner ad
image banner ad

48CL - Grass Valley Service Center

Located in Grass Valley, United States

ICAO - 48CL, IATA -

Data provided by Airmate  

General information

Coordinates: N39°12'1" W121°3'41"
Elevation is 2430 feet MSL.
Magnetic variation is 16° East
View others Airports in California

Operational data

Special qualification required
Current time UTC:
Current local time:
Weather at : KGOO - Nevada County Air Park ( 6 km )
METAR: KGOO 141215Z AUTO 00000KT 10SM SCT047 SCT055 14/09 A3004 RMK A01
View NOTAMs / SUP AIP / TFR affecting this airport [VIEW]
Communications frequencies: [VIEW]

Runways:

Airport contact information

Address: Grass Valley United States

Satellite view of 48CL